Algosoo — VGJD — position and weather

sailwx.info

Track history (hours):
 
Tides and Currents Weather Stations Pressure Air Temp Water Temp Dewpoint Dewpoint Depression Visibility Wind Speed Wind Dir Waves Ship Positions

Algosoo

Last reported at 2014-Nov-27 10:33 UTC. Time now 2014-Nov-27 10:38 UTC.
Position N 44°31' W 075°46'.

Length 223 m; draft 7.9 m.

Type: Cargo ship. MMSI: 316001799.

Date/timePositionNaut miles runAvg speedWind from/ knotsBaromVisibWave heightAir tempDewpointWater temp
2014-Nov-27 10:33N 44°31' W 075°46'8 7.9
2014-Nov-27 09:31N 44°37' W 075°37'59 5.4
2014-Nov-26 22:33N 45°08' W 074°26'6 6.0
2014-Nov-26 21:34N 45°11' W 074°19'7 7.2
2014-Nov-26 20:33N 45°14' W 074°10'7 6.7
2014-Nov-26 19:33N 45°14' W 074°00'5 5.4
2014-Nov-26 18:33N 45°18' W 073°56'1 0.6
2014-Nov-26 17:33N 45°19' W 073°55'1 1.0
2014-Nov-26 16:33N 45°20' W 073°55'7 6.5
2014-Nov-26 15:33N 45°24' W 073°47'6 5.8
2014-Nov-26 14:33N 45°24' W 073°39'4 3.8
2014-Nov-26 13:33N 45°24' W 073°34'2 2.3
2014-Nov-26 12:33N 45°25' W 073°31'5 4.6
2014-Nov-26 11:33N 45°30' W 073°31'1 0.7
2014-Nov-26 10:33N 45°30' W 073°31'5 5.0
2014-Nov-26 09:33N 45°35' W 073°30'7 6.7
2014-Nov-26 08:33N 45°42' W 073°27'7 7.2
2014-Nov-26 07:33N 45°47' W 073°21'8 7.5
2014-Nov-26 06:33N 45°53' W 073°14'10 7.2
2014-Nov-26 05:13N 46°02' W 073°10'20 6.9
2014-Nov-26 02:22N 46°14' W 072°46'6 7.3
2014-Nov-26 01:33N 46°16' W 072°38'6 6.2
2014-Nov-26 00:33N 46°20' W 072°32'6 6.3
2014-Nov-25 23:33N 46°24' W 072°24'6 6.2
2014-Nov-25 22:33N 46°27' W 072°16'8 6.1
2014-Nov-25 21:10N 46°33' W 072°09'  
2014-Nov-19 12:33N 46°33' W 072°09'1010.3
2014-Nov-19 11:33N 46°26' W 072°20'1110.9
2014-Nov-19 10:33N 46°20' W 072°32'10 9.8
2014-Nov-19 09:33N 46°15' W 072°45'62 6.6
2014-Nov-19 00:10N 45°24' W 073°36'3 5.3
2014-Nov-18 23:33N 45°25' W 073°40'7 7.5
2014-Nov-18 22:33N 45°22' W 073°50'4 4.2
2014-Nov-18 21:33N 45°19' W 073°55'0 0.0
2014-Nov-18 20:33N 45°19' W 073°55'0 0.0
2014-Nov-18 19:33N 45°19' W 073°55'0 0.0
2014-Nov-18 18:34N 45°19' W 073°55'0 0.0
2014-Nov-18 17:33N 45°19' W 073°55'0 0.0
2014-Nov-18 16:33N 45°19' W 073°55'0 0.0
2014-Nov-18 15:33N 45°19' W 073°55'0 0.0
2014-Nov-18 14:34N 45°19' W 073°55'0 0.4
2014-Nov-18 13:33N 45°19' W 073°55'1 0.6
2014-Nov-18 12:33N 45°18' W 073°55'1 0.5
2014-Nov-18 11:33N 45°18' W 073°56'4 4.2
2014-Nov-18 10:33N 45°15' W 073°59'9 9.2
2014-Nov-18 09:33N 45°14' W 074°12'7 7.1
2014-Nov-18 08:33N 45°10' W 074°21'66 6.4
2014-Nov-17 22:16N 44°36' W 075°40'810.6
2014-Nov-17 21:33N 44°30' W 075°47'1110.4
2014-Nov-17 20:31N 44°21' W 075°55'19 9.9
2014-Nov-17 18:33N 44°11' W 076°19'9 9.1
2014-Nov-17 17:33N 44°04' W 076°26'  
Track history (hours):
 
Tides and Currents Weather Stations Pressure Air Temp Water Temp Dewpoint Dewpoint Depression Visibility Wind Speed Wind Dir Waves Ship Positions

Algosoo

Last reported at 2014-Nov-27 10:33 UTC. Time now 2014-Nov-27 10:38 UTC.
Position N 44°31' W 075°46'.

Length 223 m; draft 7.9 m.

Type: Cargo ship. MMSI: 316001799.

Date/timePositionNaut miles runAvg speedWind from/ knotsBaromVisibWave heightAir tempDewpointWater temp
2014-Nov-27 10:33N 44°31' W 075°46'8 7.9
2014-Nov-27 09:31N 44°37' W 075°37'59 5.4
2014-Nov-26 22:33N 45°08' W 074°26'6 6.0
2014-Nov-26 21:34N 45°11' W 074°19'7 7.2
2014-Nov-26 20:33N 45°14' W 074°10'7 6.7
2014-Nov-26 19:33N 45°14' W 074°00'5 5.4
2014-Nov-26 18:33N 45°18' W 073°56'1 0.6
2014-Nov-26 17:33N 45°19' W 073°55'1 1.0
2014-Nov-26 16:33N 45°20' W 073°55'7 6.5
2014-Nov-26 15:33N 45°24' W 073°47'6 5.8
2014-Nov-26 14:33N 45°24' W 073°39'4 3.8
2014-Nov-26 13:33N 45°24' W 073°34'2 2.3
2014-Nov-26 12:33N 45°25' W 073°31'5 4.6
2014-Nov-26 11:33N 45°30' W 073°31'1 0.7
2014-Nov-26 10:33N 45°30' W 073°31'5 5.0
2014-Nov-26 09:33N 45°35' W 073°30'7 6.7
2014-Nov-26 08:33N 45°42' W 073°27'7 7.2
2014-Nov-26 07:33N 45°47' W 073°21'8 7.5
2014-Nov-26 06:33N 45°53' W 073°14'10 7.2
2014-Nov-26 05:13N 46°02' W 073°10'20 6.9
2014-Nov-26 02:22N 46°14' W 072°46'6 7.3
2014-Nov-26 01:33N 46°16' W 072°38'6 6.2
2014-Nov-26 00:33N 46°20' W 072°32'6 6.3
2014-Nov-25 23:33N 46°24' W 072°24'6 6.2
2014-Nov-25 22:33N 46°27' W 072°16'8 6.1
2014-Nov-25 21:10N 46°33' W 072°09'  
2014-Nov-19 12:33N 46°33' W 072°09'1010.3
2014-Nov-19 11:33N 46°26' W 072°20'1110.9
2014-Nov-19 10:33N 46°20' W 072°32'10 9.8
2014-Nov-19 09:33N 46°15' W 072°45'62 6.6
2014-Nov-19 00:10N 45°24' W 073°36'3 5.3
2014-Nov-18 23:33N 45°25' W 073°40'7 7.5
2014-Nov-18 22:33N 45°22' W 073°50'4 4.2
2014-Nov-18 21:33N 45°19' W 073°55'0 0.0
2014-Nov-18 20:33N 45°19' W 073°55'0 0.0
2014-Nov-18 19:33N 45°19' W 073°55'0 0.0
2014-Nov-18 18:34N 45°19' W 073°55'0 0.0
2014-Nov-18 17:33N 45°19' W 073°55'0 0.0
2014-Nov-18 16:33N 45°19' W 073°55'0 0.0
2014-Nov-18 15:33N 45°19' W 073°55'0 0.0
2014-Nov-18 14:34N 45°19' W 073°55'0 0.4
2014-Nov-18 13:33N 45°19' W 073°55'1 0.6
2014-Nov-18 12:33N 45°18' W 073°55'1 0.5
2014-Nov-18 11:33N 45°18' W 073°56'4 4.2
2014-Nov-18 10:33N 45°15' W 073°59'9 9.2
2014-Nov-18 09:33N 45°14' W 074°12'7 7.1
2014-Nov-18 08:33N 45°10' W 074°21'66 6.4
2014-Nov-17 22:16N 44°36' W 075°40'810.6
2014-Nov-17 21:33N 44°30' W 075°47'1110.4
2014-Nov-17 20:31N 44°21' W 075°55'19 9.9
2014-Nov-17 18:33N 44°11' W 076°19'9 9.1
2014-Nov-17 17:33N 44°04' W 076°26'  

Dump ship's entire track history